Kotzebue, AK

10:14 AM AKST on February 11, 2016 (GMT -0900)
Wien Memorial | | Change Station
CLOSE
Current Station
Airport
Location: Kotzebue,
Elevation: 16 ft
Nearby Weather Stations

Elev 16 ft 66.88 °N, 162.60 °W | Updated 21 minutes ago

Clear
Clear
-2 °F
Feels Like -10 °F
N
4
Wind Variable Wind from NE

Today
High -- | Low -- °F
--% Chance of Precip.
Yesterday
High -- | Low -- °F
Precip. -- in
Pressure 29.83 in
Visibility 10.0 miles
Clouds Clear
Windchill -10 °F
Dew Point -7 °F
Humidity 79%
Rainfall 0.00 in
Snow Depth Not available.
10:17 AM 5:53 PM
Waxing Crescent, 14% visible
METAR PAOT 111853Z 05003KT 10SM CLR M19/M22 A2983 RMK AO2 SLP101 I1000 T11891217 $
Pressure 29.83 in
Visibility 10.0 miles
Clouds Clear
Windchill -10 °F
Dew Point -7 °F
Humidity 79%
Rainfall 0.00 in
Snow Depth Not available.
10:17 AM 5:53 PM
Waxing Crescent, 14% visible
METAR PAOT 111853Z 05003KT 10SM CLR M19/M22 A2983 RMK AO2 SLP101 I1000 T11891217 $

10-Day Weather Forecast

Almanac

Astronomy

Feb. 11, 2016 Rise Set
Actual Time
Civil Twilight
Nautical Twilight
Astronomical Twilight
Moon
Length of Visible Light
Length of Day
Tomorrow will be .
, % of the Moon is Illuminated

Today's Extremes

State Highs State Lows

Community

WunderPhotos

Upload Photos

1,892,141 photos uploaded!

WunderBlog® & News

Nearby

Air Quality

  Air Quality AQ Index Pollutant
Not available.

Snow Depth

Station Depth Elevation

Earthquake Activity

City Distance Mag. Time & Date
Minimum magnitude displayed is 2.5.

Coastal Water Temperatures

Place Temperature

Stations

Nearby Weather Stations

Station Location Temp. Windchill Dew Point Humidity Wind Precip. Elev Updated Type
                   

Watches & Warnings

There are currently no watches in effect.